sensor_id;sensor_type;location;lat;lon;timestamp;P1;durP1;ratioP1;P2;durP2;ratioP2
63089;SDS011;49174;43.198;27.824;2022-11-24T01:34:25;19.55;;;12.48;;
63089;SDS011;49174;43.198;27.824;2022-11-24T01:36:51;16.95;;;10.98;;
63089;SDS011;49174;43.198;27.824;2022-11-24T01:39:16;14.30;;;7.88;;
63089;SDS011;49174;43.198;27.824;2022-11-24T01:41:42;14.00;;;8.93;;
63089;SDS011;49174;43.198;27.824;2022-11-24T01:44:26;11.73;;;8.13;;
63089;SDS011;49174;43.198;27.824;2022-11-24T01:47:01;10.93;;;6.53;;
63089;SDS011;49174;43.198;27.824;2022-11-24T01:49:42;7.93;;;5.72;;
63089;SDS011;49174;43.198;27.824;2022-11-24T01:52:12;11.80;;;5.75;;
63089;SDS011;49174;43.198;27.824;2022-11-24T01:54:50;12.02;;;6.45;;
63089;SDS011;49174;43.198;27.824;2022-11-24T01:57:26;12.52;;;6.57;;
63089;SDS011;49174;43.198;27.824;2022-11-24T01:59:57;10.88;;;6.75;;
63089;SDS011;49174;43.198;27.824;2022-11-24T02:02:27;11.45;;;6.57;;
63089;SDS011;49174;43.198;27.824;2022-11-24T02:04:57;14.65;;;7.57;;
63089;SDS011;49174;43.198;27.824;2022-11-24T02:07:28;13.93;;;7.55;;
63089;SDS011;49174;43.198;27.824;2022-11-24T02:09:55;10.80;;;6.05;;
63089;SDS011;49174;43.198;27.824;2022-11-24T02:12:25;9.75;;;5.88;;
63089;SDS011;49174;43.198;27.824;2022-11-24T02:14:52;10.05;;;5.55;;
63089;SDS011;49174;43.198;27.824;2022-11-24T02:17:18;7.45;;;5.20;;
63089;SDS011;49174;43.198;27.824;2022-11-24T02:19:49;11.35;;;5.97;;
63089;SDS011;49174;43.198;27.824;2022-11-24T02:24:51;9.25;;;5.10;;
63089;SDS011;49174;43.198;27.824;2022-11-24T02:27:48;11.30;;;4.45;;
63089;SDS011;49174;43.198;27.824;2022-11-24T02:30:14;6.97;;;4.43;;
63089;SDS011;49174;43.198;27.824;2022-11-24T02:32:40;8.80;;;4.15;;
63089;SDS011;49174;43.198;27.824;2022-11-24T02:35:07;7.00;;;4.45;;
63089;SDS011;49174;43.198;27.824;2022-11-24T02:37:34;7.70;;;4.10;;
63089;SDS011;49174;43.198;27.824;2022-11-24T02:39:59;6.93;;;3.58;;
63089;SDS011;49174;43.198;27.824;2022-11-24T02:42:25;5.18;;;3.70;;
63089;SDS011;49174;43.198;27.824;2022-11-24T02:44:56;10.45;;;4.22;;
63089;SDS011;49174;43.198;27.824;2022-11-24T02:47:24;8.55;;;3.85;;
63089;SDS011;49174;43.198;27.824;2022-11-24T02:49:50;7.10;;;4.25;;
63089;SDS011;49174;43.198;27.824;2022-11-24T02:52:16;6.22;;;3.80;;
63089;SDS011;49174;43.198;27.824;2022-11-24T02:54:41;6.32;;;3.40;;
63089;SDS011;49174;43.198;27.824;2022-11-24T02:57:07;9.05;;;4.07;;
63089;SDS011;49174;43.198;27.824;2022-11-24T02:59:33;5.97;;;2.83;;
63089;SDS011;49174;43.198;27.824;2022-11-24T03:01:58;7.80;;;3.58;;
63089;SDS011;49174;43.198;27.824;2022-11-24T03:04:25;7.50;;;3.90;;
63089;SDS011;49174;43.198;27.824;2022-11-24T03:06:50;9.18;;;3.88;;
63089;SDS011;49174;43.198;27.824;2022-11-24T03:09:16;7.95;;;3.88;;
63089;SDS011;49174;43.198;27.824;2022-11-24T03:11:41;5.97;;;4.03;;
63089;SDS011;49174;43.198;27.824;2022-11-24T03:14:07;7.40;;;4.05;;
63089;SDS011;49174;43.198;27.824;2022-11-24T03:16:33;5.53;;;3.50;;
63089;SDS011;49174;43.198;27.824;2022-11-24T03:18:58;6.45;;;3.90;;
63089;SDS011;49174;43.198;27.824;2022-11-24T03:21:25;7.85;;;4.70;;
63089;SDS011;49174;43.198;27.824;2022-11-24T03:23:51;6.15;;;3.63;;
63089;SDS011;49174;43.198;27.824;2022-11-24T03:26:17;7.25;;;3.88;;
63089;SDS011;49174;43.198;27.824;2022-11-24T03:28:44;8.43;;;3.97;;
63089;SDS011;49174;43.198;27.824;2022-11-24T03:31:10;6.03;;;3.88;;
63089;SDS011;49174;43.198;27.824;2022-11-24T03:33:36;5.70;;;3.38;;
63089;SDS011;49174;43.198;27.824;2022-11-24T03:36:03;6.40;;;4.30;;
63089;SDS011;49174;43.198;27.824;2022-11-24T03:38:29;6.35;;;4.13;;
63089;SDS011;49174;43.198;27.824;2022-11-24T03:40:55;6.72;;;4.60;;
63089;SDS011;49174;43.198;27.824;2022-11-24T03:43:20;8.77;;;4.75;;
63089;SDS011;49174;43.198;27.824;2022-11-24T03:45:46;10.52;;;5.75;;
63089;SDS011;49174;43.198;27.824;2022-11-24T03:48:14;8.43;;;4.93;;
63089;SDS011;49174;43.198;27.824;2022-11-24T03:50:40;9.15;;;4.97;;
63089;SDS011;49174;43.198;27.824;2022-11-24T03:53:06;7.53;;;5.55;;
63089;SDS011;49174;43.198;27.824;2022-11-24T03:55:32;9.05;;;5.28;;
63089;SDS011;49174;43.198;27.824;2022-11-24T03:57:57;8.32;;;4.88;;
63089;SDS011;49174;43.198;27.824;2022-11-24T04:00:23;9.32;;;4.32;;
63089;SDS011;49174;43.198;27.824;2022-11-24T04:02:48;8.93;;;5.55;;
63089;SDS011;49174;43.198;27.824;2022-11-24T04:05:14;10.70;;;5.47;;
63089;SDS011;49174;43.198;27.824;2022-11-24T04:07:39;9.77;;;6.25;;
63089;SDS011;49174;43.198;27.824;2022-11-24T04:10:05;12.25;;;6.43;;
63089;SDS011;49174;43.198;27.824;2022-11-24T04:12:31;18.63;;;8.32;;
63089;SDS011;49174;43.198;27.824;2022-11-24T04:15:09;13.45;;;8.15;;
63089;SDS011;49174;43.198;27.824;2022-11-24T04:17:40;11.68;;;8.15;;
63089;SDS011;49174;43.198;27.824;2022-11-24T04:20:06;18.55;;;9.63;;
63089;SDS011;49174;43.198;27.824;2022-11-24T04:22:32;16.00;;;9.45;;
63089;SDS011;49174;43.198;27.824;2022-11-24T04:24:57;14.70;;;9.93;;
63089;SDS011;49174;43.198;27.824;2022-11-24T04:27:23;15.52;;;9.77;;
63089;SDS011;49174;43.198;27.824;2022-11-24T04:29:48;19.58;;;10.38;;
63089;SDS011;49174;43.198;27.824;2022-11-24T04:32:15;17.20;;;9.75;;
63089;SDS011;49174;43.198;27.824;2022-11-24T04:34:41;16.10;;;10.35;;
63089;SDS011;49174;43.198;27.824;2022-11-24T04:37:07;15.60;;;9.85;;
63089;SDS011;49174;43.198;27.824;2022-11-24T04:39:33;16.55;;;9.98;;
63089;SDS011;49174;43.198;27.824;2022-11-24T04:41:58;18.85;;;9.98;;
63089;SDS011;49174;43.198;27.824;2022-11-24T04:44:24;21.52;;;11.68;;
63089;SDS011;49174;43.198;27.824;2022-11-24T04:46:49;17.60;;;10.77;;
63089;SDS011;49174;43.198;27.824;2022-11-24T04:49:15;22.45;;;14.38;;
63089;SDS011;49174;43.198;27.824;2022-11-24T04:51:41;19.50;;;10.68;;
63089;SDS011;49174;43.198;27.824;2022-11-24T04:54:08;17.10;;;10.90;;
63089;SDS011;49174;43.198;27.824;2022-11-24T04:56:35;19.45;;;11.43;;
63089;SDS011;49174;43.198;27.824;2022-11-24T04:59:00;17.88;;;10.88;;
63089;SDS011;49174;43.198;27.824;2022-11-24T05:01:26;15.70;;;10.93;;
63089;SDS011;49174;43.198;27.824;2022-11-24T05:03:55;18.38;;;10.55;;
63089;SDS011;49174;43.198;27.824;2022-11-24T05:06:21;12.82;;;7.72;;
63089;SDS011;49174;43.198;27.824;2022-11-24T05:08:47;13.65;;;6.07;;
63089;SDS011;49174;43.198;27.824;2022-11-24T05:11:14;10.50;;;5.28;;
63089;SDS011;49174;43.198;27.824;2022-11-24T05:13:41;15.60;;;5.93;;
63089;SDS011;49174;43.198;27.824;2022-11-24T05:16:07;10.80;;;6.30;;
63089;SDS011;49174;43.198;27.824;2022-11-24T05:18:33;11.90;;;6.10;;
63089;SDS011;49174;43.198;27.824;2022-11-24T05:20:59;13.82;;;5.93;;
63089;SDS011;49174;43.198;27.824;2022-11-24T05:23:24;14.43;;;6.45;;
63089;SDS011;49174;43.198;27.824;2022-11-24T05:25:50;15.15;;;7.60;;
63089;SDS011;49174;43.198;27.824;2022-11-24T05:28:16;14.98;;;7.95;;
63089;SDS011;49174;43.198;27.824;2022-11-24T05:30:43;9.23;;;6.18;;
63089;SDS011;49174;43.198;27.824;2022-11-24T05:33:13;10.60;;;6.07;;
63089;SDS011;49174;43.198;27.824;2022-11-24T05:35:44;9.98;;;5.95;;
63089;SDS011;49174;43.198;27.824;2022-11-24T05:38:11;10.90;;;6.13;;
63089;SDS011;49174;43.198;27.824;2022-11-24T05:40:36;11.02;;;6.38;;
63089;SDS011;49174;43.198;27.824;2022-11-24T05:43:02;13.27;;;5.88;;
63089;SDS011;49174;43.198;27.824;2022-11-24T05:45:28;12.30;;;5.70;;
63089;SDS011;49174;43.198;27.824;2022-11-24T05:47:54;10.88;;;5.72;;
63089;SDS011;49174;43.198;27.824;2022-11-24T05:50:20;11.88;;;6.32;;
63089;SDS011;49174;43.198;27.824;2022-11-24T05:52:47;13.68;;;7.25;;
63089;SDS011;49174;43.198;27.824;2022-11-24T05:55:15;15.63;;;8.10;;
63089;SDS011;49174;43.198;27.824;2022-11-24T05:57:41;15.75;;;7.57;;
63089;SDS011;49174;43.198;27.824;2022-11-24T06:00:08;14.35;;;8.55;;
63089;SDS011;49174;43.198;27.824;2022-11-24T06:02:36;20.13;;;7.95;;
63089;SDS011;49174;43.198;27.824;2022-11-24T06:05:02;13.18;;;7.85;;
63089;SDS011;49174;43.198;27.824;2022-11-24T06:07:27;11.07;;;5.88;;
63089;SDS011;49174;43.198;27.824;2022-11-24T06:09:53;11.80;;;7.03;;
63089;SDS011;49174;43.198;27.824;2022-11-24T06:12:18;13.60;;;8.07;;
63089;SDS011;49174;43.198;27.824;2022-11-24T06:14:44;15.65;;;8.93;;
63089;SDS011;49174;43.198;27.824;2022-11-24T06:17:10;14.23;;;8.18;;
63089;SDS011;49174;43.198;27.824;2022-11-24T06:19:36;12.90;;;7.53;;
63089;SDS011;49174;43.198;27.824;2022-11-24T06:22:01;13.75;;;7.68;;
63089;SDS011;49174;43.198;27.824;2022-11-24T06:24:27;12.32;;;8.02;;
63089;SDS011;49174;43.198;27.824;2022-11-24T06:26:53;13.10;;;7.03;;
63089;SDS011;49174;43.198;27.824;2022-11-24T06:29:18;12.43;;;6.82;;
63089;SDS011;49174;43.198;27.824;2022-11-24T06:31:44;12.75;;;6.78;;
63089;SDS011;49174;43.198;27.824;2022-11-24T06:34:11;13.20;;;7.90;;
63089;SDS011;49174;43.198;27.824;2022-11-24T06:36:37;10.68;;;6.25;;
63089;SDS011;49174;43.198;27.824;2022-11-24T06:39:05;11.90;;;6.85;;
63089;SDS011;49174;43.198;27.824;2022-11-24T06:41:31;12.27;;;6.68;;
63089;SDS011;49174;43.198;27.824;2022-11-24T06:43:56;17.02;;;7.45;;
63089;SDS011;49174;43.198;27.824;2022-11-24T06:46:22;15.73;;;7.80;;
63089;SDS011;49174;43.198;27.824;2022-11-24T06:48:51;15.80;;;8.60;;
63089;SDS011;49174;43.198;27.824;2022-11-24T06:51:17;12.73;;;7.65;;
63089;SDS011;49174;43.198;27.824;2022-11-24T06:53:43;15.30;;;8.55;;
63089;SDS011;49174;43.198;27.824;2022-11-24T06:56:10;17.15;;;8.40;;
63089;SDS011;49174;43.198;27.824;2022-11-24T06:58:40;19.52;;;12.10;;
63089;SDS011;49174;43.198;27.824;2022-11-24T07:01:07;15.80;;;10.02;;
63089;SDS011;49174;43.198;27.824;2022-11-24T07:03:33;13.55;;;8.40;;
63089;SDS011;49174;43.198;27.824;2022-11-24T07:05:58;12.88;;;8.18;;
63089;SDS011;49174;43.198;27.824;2022-11-24T07:08:24;15.30;;;7.90;;
63089;SDS011;49174;43.198;27.824;2022-11-24T07:10:50;20.38;;;9.07;;
63089;SDS011;49174;43.198;27.824;2022-11-24T07:13:19;15.50;;;7.78;;
63089;SDS011;49174;43.198;27.824;2022-11-24T07:15:45;12.75;;;7.38;;
63089;SDS011;49174;43.198;27.824;2022-11-24T07:18:11;12.63;;;7.93;;
63089;SDS011;49174;43.198;27.824;2022-11-24T07:20:36;13.50;;;8.20;;
63089;SDS011;49174;43.198;27.824;2022-11-24T07:23:02;14.63;;;8.07;;
63089;SDS011;49174;43.198;27.824;2022-11-24T07:25:28;18.90;;;10.27;;
63089;SDS011;49174;43.198;27.824;2022-11-24T07:27:57;21.00;;;10.35;;
63089;SDS011;49174;43.198;27.824;2022-11-24T07:30:23;26.23;;;12.40;;
63089;SDS011;49174;43.198;27.824;2022-11-24T07:32:50;24.20;;;14.00;;
63089;SDS011;49174;43.198;27.824;2022-11-24T07:35:15;28.10;;;15.85;;
63089;SDS011;49174;43.198;27.824;2022-11-24T07:37:42;32.53;;;15.48;;
63089;SDS011;49174;43.198;27.824;2022-11-24T07:40:08;28.77;;;16.63;;
63089;SDS011;49174;43.198;27.824;2022-11-24T07:42:34;32.38;;;17.35;;
63089;SDS011;49174;43.198;27.824;2022-11-24T07:45:00;34.53;;;19.58;;
63089;SDS011;49174;43.198;27.824;2022-11-24T07:47:25;38.67;;;20.63;;
63089;SDS011;49174;43.198;27.824;2022-11-24T07:49:51;42.60;;;21.05;;
63089;SDS011;49174;43.198;27.824;2022-11-24T07:52:16;33.30;;;18.83;;
63089;SDS011;49174;43.198;27.824;2022-11-24T07:54:42;35.65;;;20.77;;
63089;SDS011;49174;43.198;27.824;2022-11-24T07:57:07;39.65;;;22.10;;
63089;SDS011;49174;43.198;27.824;2022-11-24T07:59:33;54.58;;;28.23;;
63089;SDS011;49174;43.198;27.824;2022-11-24T08:01:58;51.35;;;28.27;;
63089;SDS011;49174;43.198;27.824;2022-11-24T08:04:24;51.17;;;25.60;;
63089;SDS011;49174;43.198;27.824;2022-11-24T08:06:49;43.20;;;25.35;;
63089;SDS011;49174;43.198;27.824;2022-11-24T08:09:15;53.78;;;27.40;;
63089;SDS011;49174;43.198;27.824;2022-11-24T08:11:40;64.15;;;35.75;;
63089;SDS011;49174;43.198;27.824;2022-11-24T08:14:06;65.53;;;37.60;;
63089;SDS011;49174;43.198;27.824;2022-11-24T08:16:32;75.25;;;37.47;;
63089;SDS011;49174;43.198;27.824;2022-11-24T08:18:57;75.60;;;39.15;;
63089;SDS011;49174;43.198;27.824;2022-11-24T08:21:23;157.10;;;77.47;;
63089;SDS011;49174;43.198;27.824;2022-11-24T08:23:49;144.88;;;72.68;;
63089;SDS011;49174;43.198;27.824;2022-11-24T08:26:18;93.03;;;49.30;;
63089;SDS011;49174;43.198;27.824;2022-11-24T08:28:44;81.13;;;40.72;;
63089;SDS011;49174;43.198;27.824;2022-11-24T08:31:15;83.57;;;42.50;;
63089;SDS011;49174;43.198;27.824;2022-11-24T08:33:45;71.70;;;38.22;;
63089;SDS011;49174;43.198;27.824;2022-11-24T08:36:12;66.18;;;35.22;;
63089;SDS011;49174;43.198;27.824;2022-11-24T08:38:39;53.63;;;26.52;;
63089;SDS011;49174;43.198;27.824;2022-11-24T08:41:06;53.15;;;27.77;;
63089;SDS011;49174;43.198;27.824;2022-11-24T08:43:33;43.60;;;23.52;;
63089;SDS011;49174;43.198;27.824;2022-11-24T08:45:59;39.25;;;22.15;;
63089;SDS011;49174;43.198;27.824;2022-11-24T08:48:32;40.13;;;22.67;;
63089;SDS011;49174;43.198;27.824;2022-11-24T08:50:58;46.22;;;24.73;;
63089;SDS011;49174;43.198;27.824;2022-11-24T08:53:29;50.05;;;27.15;;
63089;SDS011;49174;43.198;27.824;2022-11-24T08:55:58;47.92;;;28.08;;
63089;SDS011;49174;43.198;27.824;2022-11-24T08:58:24;45.30;;;25.65;;
63089;SDS011;49174;43.198;27.824;2022-11-24T09:00:50;43.00;;;25.85;;
63089;SDS011;49174;43.198;27.824;2022-11-24T09:03:15;35.15;;;22.85;;
63089;SDS011;49174;43.198;27.824;2022-11-24T09:05:41;37.97;;;21.40;;
63089;SDS011;49174;43.198;27.824;2022-11-24T09:08:06;33.63;;;20.23;;
63089;SDS011;49174;43.198;27.824;2022-11-24T09:10:32;29.90;;;17.67;;
63089;SDS011;49174;43.198;27.824;2022-11-24T09:12:57;32.38;;;19.23;;
63089;SDS011;49174;43.198;27.824;2022-11-24T09:15:23;33.25;;;18.88;;
63089;SDS011;49174;43.198;27.824;2022-11-24T09:17:48;31.88;;;18.88;;
63089;SDS011;49174;43.198;27.824;2022-11-24T09:20:14;37.88;;;19.75;;
63089;SDS011;49174;43.198;27.824;2022-11-24T09:22:40;37.67;;;19.20;;
63089;SDS011;49174;43.198;27.824;2022-11-24T09:25:07;35.58;;;22.00;;
63089;SDS011;49174;43.198;27.824;2022-11-24T09:27:33;33.72;;;18.65;;
63089;SDS011;49174;43.198;27.824;2022-11-24T09:29:59;31.52;;;19.67;;
63089;SDS011;49174;43.198;27.824;2022-11-24T09:32:24;33.13;;;19.60;;
63089;SDS011;49174;43.198;27.824;2022-11-24T09:34:50;34.83;;;19.83;;
63089;SDS011;49174;43.198;27.824;2022-11-24T09:37:16;32.30;;;19.85;;
63089;SDS011;49174;43.198;27.824;2022-11-24T09:39:42;36.67;;;21.35;;
63089;SDS011;49174;43.198;27.824;2022-11-24T09:45:19;38.80;;;24.60;;
63089;SDS011;49174;43.198;27.824;2022-11-24T09:47:55;37.42;;;23.02;;
63089;SDS011;49174;43.198;27.824;2022-11-24T09:50:26;33.67;;;23.08;;
63089;SDS011;49174;43.198;27.824;2022-11-24T09:55:41;34.40;;;18.75;;
63089;SDS011;49174;43.198;27.824;2022-11-24T09:58:16;30.38;;;19.17;;
63089;SDS011;49174;43.198;27.824;2022-11-24T10:00:54;35.63;;;20.43;;
63089;SDS011;49174;43.198;27.824;2022-11-24T10:03:36;33.45;;;19.15;;
63089;SDS011;49174;43.198;27.824;2022-11-24T10:06:17;29.90;;;18.83;;
63089;SDS011;49174;43.198;27.824;2022-11-24T10:11:38;33.72;;;19.58;;
63089;SDS011;49174;43.198;27.824;2022-11-24T10:28:46;34.22;;;20.25;;
63089;SDS011;49174;43.198;27.824;2022-11-24T10:33:49;29.10;;;17.30;;
63089;SDS011;49174;43.198;27.824;2022-11-24T10:36:19;30.88;;;18.65;;
63089;SDS011;49174;43.198;27.824;2022-11-24T10:41:38;32.45;;;16.30;;
63089;SDS011;49174;43.198;27.824;2022-11-24T10:44:13;31.42;;;14.80;;
63089;SDS011;49174;43.198;27.824;2022-11-24T10:46:39;23.38;;;14.15;;
63089;SDS011;49174;43.198;27.824;2022-11-24T10:49:05;25.63;;;13.68;;
63089;SDS011;49174;43.198;27.824;2022-11-24T10:56:42;20.33;;;11.80;;
63089;SDS011;49174;43.198;27.824;2022-11-24T11:08:15;21.05;;;12.00;;
63089;SDS011;49174;43.198;27.824;2022-11-24T11:10:47;29.10;;;15.50;;
63089;SDS011;49174;43.198;27.824;2022-11-24T11:15:53;22.00;;;13.20;;
63089;SDS011;49174;43.198;27.824;2022-11-24T11:18:20;23.27;;;13.25;;
63089;SDS011;49174;43.198;27.824;2022-11-24T11:20:51;24.75;;;13.38;;
63089;SDS011;49174;43.198;27.824;2022-11-24T11:23:21;18.83;;;11.82;;
63089;SDS011;49174;43.198;27.824;2022-11-24T11:28:42;17.98;;;10.30;;
63089;SDS011;49174;43.198;27.824;2022-11-24T11:31:21;16.77;;;9.63;;
63089;SDS011;49174;43.198;27.824;2022-11-24T11:36:41;15.38;;;8.68;;
63089;SDS011;49174;43.198;27.824;2022-11-24T11:39:13;14.73;;;8.30;;
63089;SDS011;49174;43.198;27.824;2022-11-24T11:44:46;13.00;;;7.63;;
63089;SDS011;49174;43.198;27.824;2022-11-24T11:47:26;14.23;;;7.63;;
63089;SDS011;49174;43.198;27.824;2022-11-24T11:49:55;12.30;;;7.53;;
63089;SDS011;49174;43.198;27.824;2022-11-24T11:52:46;12.98;;;7.45;;
63089;SDS011;49174;43.198;27.824;2022-11-24T12:00:38;9.57;;;6.18;;
63089;SDS011;49174;43.198;27.824;2022-11-24T12:11:14;10.82;;;5.78;;
63089;SDS011;49174;43.198;27.824;2022-11-24T12:19:12;10.13;;;5.40;;
63089;SDS011;49174;43.198;27.824;2022-11-24T12:24:28;8.13;;;5.47;;
63089;SDS011;49174;43.198;27.824;2022-11-24T12:27:16;6.95;;;4.88;;
63089;SDS011;49174;43.198;27.824;2022-11-24T12:43:23;12.27;;;5.03;;
63089;SDS011;49174;43.198;27.824;2022-11-24T12:45:57;7.95;;;4.65;;
63089;SDS011;49174;43.198;27.824;2022-11-24T12:48:36;9.82;;;5.43;;
63089;SDS011;49174;43.198;27.824;2022-11-24T12:51:16;10.07;;;6.07;;
63089;SDS011;49174;43.198;27.824;2022-11-24T12:53:43;11.55;;;5.75;;
63089;SDS011;49174;43.198;27.824;2022-11-24T12:56:12;9.57;;;6.25;;
63089;SDS011;49174;43.198;27.824;2022-11-24T13:01:21;9.55;;;6.22;;
63089;SDS011;49174;43.198;27.824;2022-11-24T13:06:53;8.80;;;4.93;;
63089;SDS011;49174;43.198;27.824;2022-11-24T13:09:35;7.53;;;5.00;;
63089;SDS011;49174;43.198;27.824;2022-11-24T13:12:13;9.05;;;5.40;;
63089;SDS011;49174;43.198;27.824;2022-11-24T13:14:41;9.70;;;5.55;;
63089;SDS011;49174;43.198;27.824;2022-11-24T13:19:53;8.52;;;5.32;;
63089;SDS011;49174;43.198;27.824;2022-11-24T13:22:39;9.07;;;5.80;;
63089;SDS011;49174;43.198;27.824;2022-11-24T13:25:32;11.77;;;5.57;;
63089;SDS011;49174;43.198;27.824;2022-11-24T13:27:59;14.27;;;6.18;;
63089;SDS011;49174;43.198;27.824;2022-11-24T13:33:40;8.27;;;5.35;;
63089;SDS011;49174;43.198;27.824;2022-11-24T13:41:08;9.23;;;6.03;;
63089;SDS011;49174;43.198;27.824;2022-11-24T13:43:35;8.70;;;5.28;;
63089;SDS011;49174;43.198;27.824;2022-11-24T13:46:02;8.70;;;5.65;;
63089;SDS011;49174;43.198;27.824;2022-11-24T13:48:51;10.63;;;5.63;;
63089;SDS011;49174;43.198;27.824;2022-11-24T13:51:18;12.35;;;6.20;;
63089;SDS011;49174;43.198;27.824;2022-11-24T13:53:47;9.98;;;5.30;;
63089;SDS011;49174;43.198;27.824;2022-11-24T14:01:15;12.65;;;5.35;;
63089;SDS011;49174;43.198;27.824;2022-11-24T14:03:46;11.90;;;5.90;;
63089;SDS011;49174;43.198;27.824;2022-11-24T14:06:18;11.98;;;6.43;;
63089;SDS011;49174;43.198;27.824;2022-11-24T14:08:52;9.90;;;6.30;;
63089;SDS011;49174;43.198;27.824;2022-11-24T14:11:19;13.25;;;6.40;;
63089;SDS011;49174;43.198;27.824;2022-11-24T14:13:45;9.52;;;5.80;;
63089;SDS011;49174;43.198;27.824;2022-11-24T14:18:37;10.00;;;6.10;;
63089;SDS011;49174;43.198;27.824;2022-11-24T14:21:33;10.80;;;6.32;;
63089;SDS011;49174;43.198;27.824;2022-11-24T14:26:37;15.38;;;8.38;;
63089;SDS011;49174;43.198;27.824;2022-11-24T14:29:05;12.27;;;7.30;;
63089;SDS011;49174;43.198;27.824;2022-11-24T14:31:36;10.57;;;5.55;;
63089;SDS011;49174;43.198;27.824;2022-11-24T14:34:21;8.60;;;6.18;;
63089;SDS011;49174;43.198;27.824;2022-11-24T14:36:48;10.48;;;6.32;;
63089;SDS011;49174;43.198;27.824;2022-11-24T14:39:16;10.20;;;4.97;;
63089;SDS011;49174;43.198;27.824;2022-11-24T14:41:50;8.30;;;4.75;;
63089;SDS011;49174;43.198;27.824;2022-11-24T14:47:05;7.05;;;3.97;;
63089;SDS011;49174;43.198;27.824;2022-11-24T14:49:39;6.93;;;4.18;;
63089;SDS011;49174;43.198;27.824;2022-11-24T14:52:13;5.45;;;3.88;;
63089;SDS011;49174;43.198;27.824;2022-11-24T14:54:58;4.53;;;3.08;;
63089;SDS011;49174;43.198;27.824;2022-11-24T15:02:43;8.55;;;5.22;;
63089;SDS011;49174;43.198;27.824;2022-11-24T15:05:23;7.50;;;5.15;;
63089;SDS011;49174;43.198;27.824;2022-11-24T15:08:00;8.38;;;3.60;;
63089;SDS011;49174;43.198;27.824;2022-11-24T15:13:01;8.60;;;4.97;;
63089;SDS011;49174;43.198;27.824;2022-11-24T15:15:31;6.93;;;4.28;;
63089;SDS011;49174;43.198;27.824;2022-11-24T15:18:00;7.85;;;5.13;;
63089;SDS011;49174;43.198;27.824;2022-11-24T15:20:28;9.18;;;4.35;;
63089;SDS011;49174;43.198;27.824;2022-11-24T15:23:24;8.25;;;4.80;;
63089;SDS011;49174;43.198;27.824;2022-11-24T15:25:53;8.27;;;4.88;;
63089;SDS011;49174;43.198;27.824;2022-11-24T15:28:19;9.13;;;5.25;;
63089;SDS011;49174;43.198;27.824;2022-11-24T15:30:49;7.53;;;4.63;;
63089;SDS011;49174;43.198;27.824;2022-11-24T15:33:19;7.65;;;4.40;;
63089;SDS011;49174;43.198;27.824;2022-11-24T15:35:46;8.25;;;4.70;;
63089;SDS011;49174;43.198;27.824;2022-11-24T15:38:12;8.98;;;5.70;;
63089;SDS011;49174;43.198;27.824;2022-11-24T15:40:39;13.10;;;5.90;;
63089;SDS011;49174;43.198;27.824;2022-11-24T15:45:39;8.05;;;4.50;;
63089;SDS011;49174;43.198;27.824;2022-11-24T15:48:05;9.85;;;4.90;;
63089;SDS011;49174;43.198;27.824;2022-11-24T15:50:31;8.27;;;5.40;;
63089;SDS011;49174;43.198;27.824;2022-11-24T15:52:56;10.57;;;5.95;;
63089;SDS011;49174;43.198;27.824;2022-11-24T15:55:22;10.90;;;6.28;;
63089;SDS011;49174;43.198;27.824;2022-11-24T15:57:48;14.35;;;6.75;;
63089;SDS011;49174;43.198;27.824;2022-11-24T16:00:15;12.77;;;6.43;;
63089;SDS011;49174;43.198;27.824;2022-11-24T16:02:42;13.65;;;7.53;;
63089;SDS011;49174;43.198;27.824;2022-11-24T16:05:08;11.00;;;6.95;;
63089;SDS011;49174;43.198;27.824;2022-11-24T16:07:35;13.80;;;7.82;;
63089;SDS011;49174;43.198;27.824;2022-11-24T16:10:00;12.48;;;7.13;;
63089;SDS011;49174;43.198;27.824;2022-11-24T16:12:26;11.32;;;7.38;;
63089;SDS011;49174;43.198;27.824;2022-11-24T16:14:51;11.50;;;6.35;;
63089;SDS011;49174;43.198;27.824;2022-11-24T16:17:17;12.18;;;6.20;;
63089;SDS011;49174;43.198;27.824;2022-11-24T16:19:42;12.73;;;6.85;;
63089;SDS011;49174;43.198;27.824;2022-11-24T16:22:08;8.63;;;5.53;;
63089;SDS011;49174;43.198;27.824;2022-11-24T16:24:33;11.02;;;5.72;;
63089;SDS011;49174;43.198;27.824;2022-11-24T16:26:59;8.68;;;4.75;;
63089;SDS011;49174;43.198;27.824;2022-11-24T16:29:24;6.25;;;4.05;;
63089;SDS011;49174;43.198;27.824;2022-11-24T16:31:50;5.45;;;3.38;;
63089;SDS011;49174;43.198;27.824;2022-11-24T16:34:16;6.97;;;3.78;;
63089;SDS011;49174;43.198;27.824;2022-11-24T16:36:42;5.47;;;3.40;;
63089;SDS011;49174;43.198;27.824;2022-11-24T16:39:07;4.93;;;3.00;;
63089;SDS011;49174;43.198;27.824;2022-11-24T16:41:33;4.10;;;3.45;;
63089;SDS011;49174;43.198;27.824;2022-11-24T16:43:58;4.18;;;2.88;;
63089;SDS011;49174;43.198;27.824;2022-11-24T16:46:24;5.15;;;3.00;;
63089;SDS011;49174;43.198;27.824;2022-11-24T16:48:51;4.95;;;2.50;;
63089;SDS011;49174;43.198;27.824;2022-11-24T16:51:18;4.47;;;2.50;;
63089;SDS011;49174;43.198;27.824;2022-11-24T16:53:45;3.75;;;2.67;;
63089;SDS011;49174;43.198;27.824;2022-11-24T16:56:11;4.50;;;2.85;;
63089;SDS011;49174;43.198;27.824;2022-11-24T16:58:39;4.80;;;2.83;;
63089;SDS011;49174;43.198;27.824;2022-11-24T17:01:06;5.30;;;3.22;;
63089;SDS011;49174;43.198;27.824;2022-11-24T17:03:33;4.65;;;3.42;;
63089;SDS011;49174;43.198;27.824;2022-11-24T17:06:01;3.55;;;2.42;;
63089;SDS011;49174;43.198;27.824;2022-11-24T17:08:29;5.22;;;3.47;;
63089;SDS011;49174;43.198;27.824;2022-11-24T17:10:56;3.75;;;2.67;;
63089;SDS011;49174;43.198;27.824;2022-11-24T17:13:22;5.85;;;3.75;;
63089;SDS011;49174;43.198;27.824;2022-11-24T17:15:48;4.30;;;2.80;;
63089;SDS011;49174;43.198;27.824;2022-11-24T17:18:13;5.07;;;3.05;;
63089;SDS011;49174;43.198;27.824;2022-11-24T17:20:39;4.75;;;3.22;;
63089;SDS011;49174;43.198;27.824;2022-11-24T17:23:04;5.55;;;3.20;;
63089;SDS011;49174;43.198;27.824;2022-11-24T17:25:30;8.52;;;3.60;;
63089;SDS011;49174;43.198;27.824;2022-11-24T17:27:57;5.88;;;3.55;;
63089;SDS011;49174;43.198;27.824;2022-11-24T17:30:23;5.93;;;3.55;;
63089;SDS011;49174;43.198;27.824;2022-11-24T17:32:48;7.13;;;3.85;;
63089;SDS011;49174;43.198;27.824;2022-11-24T17:35:14;6.63;;;4.20;;
63089;SDS011;49174;43.198;27.824;2022-11-24T17:37:39;4.55;;;3.40;;
63089;SDS011;49174;43.198;27.824;2022-11-24T17:40:05;3.85;;;2.60;;
63089;SDS011;49174;43.198;27.824;2022-11-24T17:42:31;4.43;;;3.25;;
63089;SDS011;49174;43.198;27.824;2022-11-24T17:44:56;4.63;;;3.75;;
63089;SDS011;49174;43.198;27.824;2022-11-24T17:47:22;7.07;;;5.10;;
63089;SDS011;49174;43.198;27.824;2022-11-24T17:49:48;7.97;;;5.18;;
63089;SDS011;49174;43.198;27.824;2022-11-24T17:52:13;5.18;;;3.55;;
63089;SDS011;49174;43.198;27.824;2022-11-24T17:54:39;4.57;;;3.22;;
63089;SDS011;49174;43.198;27.824;2022-11-24T17:57:05;5.18;;;3.75;;
63089;SDS011;49174;43.198;27.824;2022-11-24T17:59:30;5.93;;;3.45;;
63089;SDS011;49174;43.198;27.824;2022-11-24T18:01:56;6.10;;;4.32;;
63089;SDS011;49174;43.198;27.824;2022-11-24T18:04:21;7.50;;;4.80;;
63089;SDS011;49174;43.198;27.824;2022-11-24T18:06:47;7.00;;;4.90;;
63089;SDS011;49174;43.198;27.824;2022-11-24T18:09:13;7.30;;;5.05;;
63089;SDS011;49174;43.198;27.824;2022-11-24T18:11:38;9.95;;;7.40;;
63089;SDS011;49174;43.198;27.824;2022-11-24T18:14:04;9.93;;;6.47;;